createdAt,value
2019-02-28T00:00:37.222Z,5.73
2019-02-28T00:01:36.428Z,5.69
2019-02-28T00:02:36.335Z,5.73
2019-02-28T00:03:36.445Z,5.67
2019-02-28T00:04:36.281Z,5.77
2019-02-28T00:05:37.918Z,5.66
2019-02-28T00:06:36.233Z,5.65
2019-02-28T00:07:36.268Z,5.69
2019-02-28T00:08:36.169Z,5.80
2019-02-28T00:09:36.282Z,5.59
2019-02-28T00:10:36.119Z,5.63
2019-02-28T00:11:39.563Z,5.66
2019-02-28T00:12:36.057Z,5.59
2019-02-28T00:13:36.100Z,5.63
2019-02-28T00:14:36.009Z,5.60
2019-02-28T00:15:36.115Z,5.65
2019-02-28T00:16:36.417Z,5.60
2019-02-28T00:17:36.027Z,5.58
2019-02-28T00:18:35.907Z,5.56
2019-02-28T00:19:35.939Z,5.59
2019-02-28T00:20:36.622Z,5.62
2019-02-28T00:21:37.325Z,5.62
2019-02-28T00:22:35.792Z,5.51
2019-02-28T00:23:35.858Z,5.44
2019-02-28T00:24:35.741Z,5.41
2019-02-28T00:25:38.087Z,5.49
2019-02-28T00:26:35.680Z,5.49
2019-02-28T00:27:35.791Z,5.38
2019-02-28T00:28:35.625Z,5.37
2019-02-28T00:29:35.697Z,5.37
2019-02-28T00:30:37.438Z,5.33
2019-02-28T00:31:35.610Z,5.37
2019-02-28T00:32:35.514Z,5.29
2019-02-28T00:33:35.624Z,5.30
2019-02-28T00:34:36.315Z,5.35
2019-02-28T00:35:35.539Z,5.27
2019-02-28T00:36:35.404Z,5.30
2019-02-28T00:37:35.446Z,5.20
2019-02-28T00:38:35.350Z,5.30
2019-02-28T00:39:35.544Z,5.35
2019-02-28T00:40:38.539Z,5.30
2019-02-28T00:41:35.276Z,5.27
2019-02-28T00:42:37.285Z,5.20
2019-02-28T00:43:35.219Z,5.27
2019-02-28T00:44:36.376Z,5.15
2019-02-28T00:45:37.183Z,5.17
2019-02-28T00:46:35.162Z,5.14
2019-02-28T00:47:35.102Z,5.23
2019-02-28T00:48:35.175Z,5.22
2019-02-28T00:49:35.047Z,5.11
2019-02-28T00:50:36.109Z,5.11
2019-02-28T00:51:34.994Z,5.12
2019-02-28T00:52:55.971Z,5.02
2019-02-28T00:53:37.378Z,5.15
2019-02-28T00:54:51.598Z,5.11
2019-02-28T00:55:34.881Z,5.12
2019-02-28T00:56:36.971Z,5.15
2019-02-28T00:57:34.826Z,5.09
2019-02-28T00:58:34.853Z,5.19
2019-02-28T00:59:34.774Z,5.14
2019-02-28T01:00:37.083Z,5.15
2019-02-28T01:01:34.716Z,5.22
2019-02-28T01:02:35.781Z,5.22
2019-02-28T01:03:34.673Z,5.22
2019-02-28T01:04:34.671Z,5.17
2019-02-28T01:05:36.633Z,5.24
2019-02-28T01:06:35.707Z,5.22
2019-02-28T01:07:34.543Z,5.14
2019-02-28T01:08:36.648Z,5.26
2019-02-28T01:09:34.500Z,5.29
2019-02-28T01:10:49.049Z,5.19
2019-02-28T01:11:34.461Z,5.30
2019-02-28T01:12:36.468Z,5.29
2019-02-28T01:13:34.383Z,5.26
2019-02-28T01:14:35.955Z,5.29
2019-02-28T01:15:34.337Z,5.33
2019-02-28T01:16:36.392Z,5.37
2019-02-28T01:17:34.285Z,5.41
2019-02-28T01:18:34.780Z,5.42
2019-02-28T01:19:34.219Z,5.44
2019-02-28T01:21:34.163Z,5.51
2019-02-28T01:22:34.181Z,5.49
2019-02-28T01:23:34.127Z,5.48
2019-02-28T01:24:41.055Z,5.49
2019-02-28T01:25:34.059Z,5.44
2019-02-28T01:26:43.279Z,5.41
2019-02-28T01:27:34.002Z,5.41
2019-02-28T01:28:36.072Z,5.35
2019-02-28T01:29:35.710Z,5.35
2019-02-28T01:30:34.034Z,5.42
2019-02-28T01:31:33.888Z,5.40
2019-02-28T01:32:33.950Z,5.44
2019-02-28T01:33:33.833Z,5.44
2019-02-28T01:34:33.862Z,5.45
2019-02-28T01:35:33.788Z,5.41
2019-02-28T01:36:40.630Z,5.51
2019-02-28T01:37:33.734Z,5.55
2019-02-28T01:38:42.591Z,5.52
2019-02-28T01:39:33.668Z,5.60
2019-02-28T01:40:35.211Z,5.60
2019-02-28T01:41:33.613Z,5.67
2019-02-28T01:42:33.706Z,5.67
2019-02-28T01:43:33.557Z,5.70
2019-02-28T01:44:35.816Z,5.70
2019-02-28T01:45:33.511Z,5.73
2019-02-28T01:46:33.535Z,5.69
2019-02-28T01:47:33.446Z,5.81
2019-02-28T01:48:33.548Z,5.92
2019-02-28T01:49:33.388Z,5.80
2019-02-28T01:50:33.463Z,5.90
2019-02-28T01:51:36.702Z,5.95
2019-02-28T01:52:33.370Z,6.03
2019-02-28T01:53:33.291Z,6.05
2019-02-28T01:54:33.381Z,6.01
2019-02-28T01:55:33.220Z,6.10
2019-02-28T01:56:40.145Z,6.11
2019-02-28T01:57:33.170Z,6.17
2019-02-28T01:58:34.225Z,6.14
2019-02-28T01:59:33.132Z,6.16
2019-02-28T02:00:35.156Z,6.20
2019-02-28T02:01:33.052Z,6.24
2019-02-28T02:02:41.119Z,6.16
2019-02-28T02:03:33.001Z,6.20
2019-02-28T02:04:33.029Z,6.20
2019-02-28T02:05:32.947Z,6.30
2019-02-28T02:06:33.085Z,6.17
2019-02-28T02:07:33.334Z,6.21
2019-02-28T02:08:39.662Z,6.24
2019-02-28T02:09:32.844Z,6.27
2019-02-28T02:10:32.915Z,6.17
2019-02-28T02:11:32.784Z,6.16
2019-02-28T02:12:32.930Z,6.19
2019-02-28T02:13:36.604Z,6.06
2019-02-28T02:14:32.838Z,6.13
2019-02-28T02:15:32.673Z,6.02
2019-02-28T02:16:32.742Z,5.95
2019-02-28T02:17:35.428Z,5.90
2019-02-28T02:18:32.864Z,5.81
2019-02-28T02:19:32.567Z,5.73
2019-02-28T02:20:32.671Z,5.70
2019-02-28T02:21:34.839Z,5.58
2019-02-28T02:22:32.601Z,5.63
2019-02-28T02:23:32.447Z,5.48
2019-02-28T02:24:32.412Z,5.44
2019-02-28T02:25:37.123Z,5.42
2019-02-28T02:26:32.373Z,5.40
2019-02-28T02:27:32.435Z,5.33
2019-02-28T02:28:32.324Z,5.33
2019-02-28T02:29:36.047Z,5.30
2019-02-28T02:30:32.245Z,5.27
2019-02-28T02:31:32.250Z,5.23
2019-02-28T02:32:37.520Z,5.27
2019-02-28T02:33:32.273Z,5.22
2019-02-28T02:34:32.142Z,5.05
2019-02-28T02:35:32.180Z,5.02
2019-02-28T02:36:32.084Z,5.09
2019-02-28T02:37:32.174Z,4.96
2019-02-28T02:38:32.030Z,4.96
2019-02-28T02:39:32.182Z,5.05
2019-02-28T02:40:31.975Z,4.91
2019-02-28T02:41:33.522Z,4.93
2019-02-28T02:42:31.910Z,4.88
2019-02-28T02:43:33.032Z,4.87
2019-02-28T02:44:32.113Z,4.88
2019-02-28T02:45:32.021Z,4.83
2019-02-28T02:46:31.803Z,4.83
2019-02-28T02:47:48.729Z,4.80
2019-02-28T02:48:31.749Z,4.72
2019-02-28T02:49:32.877Z,4.69
2019-02-28T02:50:35.736Z,4.75
2019-02-28T02:51:32.788Z,4.65
2019-02-28T02:52:31.636Z,4.67
2019-02-28T02:53:31.652Z,4.71
2019-02-28T02:54:31.775Z,4.59
2019-02-28T02:55:31.549Z,4.57
2019-02-28T02:56:31.660Z,4.53
2019-02-28T02:57:31.499Z,4.53
2019-02-28T02:58:31.485Z,4.49
2019-02-28T02:59:37.228Z,4.47
2019-02-28T03:00:31.416Z,4.50
2019-02-28T03:01:31.390Z,4.38
2019-02-28T03:02:33.241Z,4.32
2019-02-28T03:03:31.330Z,4.34
2019-02-28T03:04:31.309Z,4.34
2019-02-28T03:05:34.916Z,4.26
2019-02-28T03:06:31.420Z,4.31
2019-02-28T03:07:31.222Z,4.32
2019-02-28T03:08:35.697Z,4.34
2019-02-28T03:09:31.336Z,4.21
2019-02-28T03:10:31.134Z,4.31
2019-02-28T03:11:31.111Z,4.24
2019-02-28T03:12:32.639Z,4.26
2019-02-28T03:13:31.057Z,4.26
2019-02-28T03:14:31.038Z,4.18
2019-02-28T03:15:30.992Z,4.17
2019-02-28T03:16:32.957Z,4.20
2019-02-28T03:17:30.944Z,4.17
2019-02-28T03:18:30.905Z,4.11
2019-02-28T03:19:33.800Z,4.13
2019-02-28T03:20:31.049Z,4.10
2019-02-28T03:21:30.829Z,4.13
2019-02-28T03:22:30.798Z,4.10
2019-02-28T03:23:37.932Z,4.07
2019-02-28T03:24:30.930Z,3.98
2019-02-28T03:25:30.742Z,4.11
2019-02-28T03:26:30.690Z,4.04
2019-02-28T03:27:30.661Z,4.08
2019-02-28T03:28:32.169Z,4.02
2019-02-28T03:29:30.599Z,4.00
2019-02-28T03:30:32.869Z,3.92
2019-02-28T03:31:30.558Z,3.99
2019-02-28T03:32:39.310Z,3.93
2019-02-28T03:33:30.495Z,3.84
2019-02-28T03:34:30.494Z,3.86
2019-02-28T03:35:39.708Z,3.92
2019-02-28T03:36:30.410Z,3.89
2019-02-28T03:37:33.076Z,3.93
2019-02-28T03:38:30.344Z,3.82
2019-02-28T03:39:30.323Z,3.88
2019-02-28T03:40:30.307Z,3.84
2019-02-28T03:41:30.263Z,3.89
2019-02-28T03:42:30.257Z,3.78
2019-02-28T03:43:30.204Z,3.78
2019-02-28T03:44:30.178Z,3.88
2019-02-28T03:45:35.128Z,3.84
2019-02-28T03:46:30.126Z,3.82
2019-02-28T03:47:30.093Z,3.95
2019-02-28T03:48:34.991Z,3.82
2019-02-28T03:49:30.042Z,3.86
2019-02-28T03:50:30.011Z,3.78
2019-02-28T03:51:29.981Z,3.77
2019-02-28T03:52:29.960Z,3.77
2019-02-28T03:53:29.935Z,3.84
2019-02-28T03:54:30.107Z,3.80
2019-02-28T03:55:29.863Z,3.75
2019-02-28T03:56:29.839Z,3.90
2019-02-28T03:57:29.822Z,3.78
2019-02-28T03:58:29.781Z,3.86
2019-02-28T03:59:29.760Z,3.78
2019-02-28T04:00:33.921Z,3.80
2019-02-28T04:01:29.698Z,3.75
2019-02-28T04:02:29.678Z,3.82
2019-02-28T04:03:33.362Z,3.80
2019-02-28T04:04:29.612Z,3.86
2019-02-28T04:05:29.595Z,3.78
2019-02-28T04:06:29.569Z,3.84
2019-02-28T04:07:29.531Z,3.75
2019-02-28T04:09:29.481Z,3.78
2019-02-28T04:11:31.282Z,3.72
2019-02-28T04:12:29.527Z,3.75
2019-02-28T04:13:29.358Z,3.78
2019-02-28T04:15:29.321Z,3.72
2019-02-28T04:24:36.519Z,3.64
2019-02-28T04:25:36.634Z,3.53
2019-02-28T04:26:36.444Z,3.54
2019-02-28T04:27:40.237Z,3.62
2019-02-28T04:28:36.389Z,3.59
2019-02-28T04:29:36.360Z,3.54
2019-02-28T04:30:42.184Z,3.57
2019-02-28T04:31:36.309Z,3.60
2019-02-28T04:32:36.273Z,3.57
2019-02-28T04:33:39.072Z,3.52
2019-02-28T04:34:36.219Z,3.46
2019-02-28T04:35:36.248Z,3.53
2019-02-28T04:36:36.581Z,3.50
2019-02-28T04:37:36.270Z,3.46
2019-02-28T04:38:36.097Z,3.46
2019-02-28T04:39:36.179Z,3.41
2019-02-28T04:40:36.043Z,3.44
2019-02-28T04:41:36.090Z,3.49
2019-02-28T04:42:36.655Z,3.42
2019-02-28T04:43:36.100Z,3.41
2019-02-28T04:44:35.953Z,3.41
2019-02-28T04:45:36.029Z,3.37
2019-02-28T04:46:35.878Z,3.41
2019-02-28T04:47:37.270Z,3.37
2019-02-28T04:48:35.826Z,3.42
2019-02-28T04:49:35.937Z,3.28
2019-02-28T04:50:35.766Z,3.31
2019-02-28T04:51:37.035Z,3.30
2019-02-28T04:52:35.707Z,3.33
2019-02-28T04:53:35.760Z,3.33
2019-02-28T04:54:35.652Z,3.34
2019-02-28T04:55:37.315Z,3.28
2019-02-28T04:56:35.598Z,3.30
2019-02-28T04:57:35.693Z,3.39
2019-02-28T04:58:35.526Z,3.34
2019-02-28T04:59:35.596Z,3.26
2019-02-28T05:00:37.852Z,3.30
2019-02-28T05:01:35.504Z,3.31
2019-02-28T05:02:35.442Z,3.35
2019-02-28T05:03:35.519Z,3.20
2019-02-28T05:04:36.118Z,3.33
2019-02-28T05:05:35.431Z,3.20
2019-02-28T05:06:35.310Z,3.25
2019-02-28T05:07:35.343Z,3.26
2019-02-28T05:08:38.601Z,3.33
2019-02-28T05:09:35.358Z,3.25
2019-02-28T05:10:35.193Z,3.25
2019-02-28T05:11:35.267Z,3.23
2019-02-28T05:12:36.306Z,3.19
2019-02-28T05:13:35.179Z,3.25
2019-02-28T05:14:35.084Z,3.28
2019-02-28T05:15:38.530Z,3.19
2019-02-28T05:16:35.030Z,3.26
2019-02-28T05:17:35.102Z,3.28
2019-02-28T05:18:34.969Z,3.34
2019-02-28T05:19:35.860Z,3.34
2019-02-28T05:20:34.910Z,3.35
2019-02-28T05:21:35.028Z,3.31
2019-02-28T05:22:34.858Z,3.42
2019-02-28T05:23:36.150Z,3.39
2019-02-28T05:24:34.798Z,3.46
2019-02-28T05:25:34.843Z,3.44
2019-02-28T05:26:34.746Z,3.49
2019-02-28T05:27:35.535Z,3.50
2019-02-28T05:28:40.293Z,3.50
2019-02-28T05:29:34.766Z,3.56
2019-02-28T05:30:34.626Z,3.49
2019-02-28T05:31:34.694Z,3.59
2019-02-28T05:32:35.586Z,3.56
2019-02-28T05:33:34.701Z,3.63
2019-02-28T05:34:34.512Z,3.60
2019-02-28T05:35:34.609Z,3.57
2019-02-28T05:36:34.651Z,3.60
2019-02-28T05:37:34.441Z,3.67
2019-02-28T05:38:34.400Z,3.75
2019-02-28T05:39:34.434Z,3.78
2019-02-28T05:40:34.339Z,3.75
2019-02-28T05:41:36.211Z,3.62
2019-02-28T05:42:34.292Z,3.71
2019-02-28T05:43:34.262Z,3.71
2019-02-28T05:44:34.226Z,3.68
2019-02-28T05:45:34.196Z,3.70
2019-02-28T05:46:34.168Z,3.67
2019-02-28T05:47:42.496Z,3.78
2019-02-28T05:48:35.342Z,3.75
2019-02-28T05:49:34.083Z,3.89
2019-02-28T05:50:34.075Z,3.99
2019-02-28T05:51:34.027Z,4.08
2019-02-28T05:52:34.583Z,4.21
2019-02-28T05:53:33.961Z,4.29
2019-02-28T05:54:33.971Z,4.34
2019-02-28T05:55:33.909Z,4.29
2019-02-28T05:56:34.106Z,4.39
2019-02-28T05:57:33.852Z,4.57
2019-02-28T05:58:33.837Z,4.50
2019-02-28T05:59:33.798Z,4.54
2019-02-28T06:00:37.090Z,4.59
2019-02-28T06:01:33.745Z,4.62
2019-02-28T06:02:33.719Z,4.64
2019-02-28T06:03:33.687Z,4.72
2019-02-28T06:04:34.229Z,4.71
2019-02-28T06:05:33.625Z,4.87
2019-02-28T06:06:33.593Z,4.80
2019-02-28T06:07:33.575Z,4.79
2019-02-28T06:08:38.685Z,4.84
2019-02-28T06:09:33.512Z,4.84
2019-02-28T06:10:33.492Z,4.87
2019-02-28T06:11:35.561Z,4.86
2019-02-28T06:12:33.424Z,4.87
2019-02-28T06:13:33.396Z,4.90
2019-02-28T06:14:33.377Z,4.87
2019-02-28T06:15:34.178Z,4.96
2019-02-28T06:16:33.301Z,5.01
2019-02-28T06:17:33.284Z,5.01
2019-02-28T06:18:33.555Z,5.06
2019-02-28T06:19:33.253Z,5.02
2019-02-28T06:20:33.198Z,5.04
2019-02-28T06:21:33.168Z,5.05
2019-02-28T06:22:36.206Z,4.99
2019-02-28T06:23:33.113Z,4.96
2019-02-28T06:24:33.087Z,5.04
2019-02-28T06:25:33.058Z,4.93
2019-02-28T06:26:33.067Z,4.91
2019-02-28T06:27:41.177Z,5.01
2019-02-28T06:28:32.981Z,4.93
2019-02-28T06:29:32.951Z,5.04
2019-02-28T06:30:32.915Z,5.04
2019-02-28T06:31:34.432Z,5.04
2019-02-28T06:32:32.856Z,5.15
2019-02-28T06:33:33.758Z,5.08
2019-02-28T06:34:33.418Z,5.12
2019-02-28T06:35:32.772Z,5.11
2019-02-28T06:36:32.850Z,5.14
2019-02-28T06:37:35.434Z,5.12
2019-02-28T06:38:32.738Z,5.08
2019-02-28T06:39:32.761Z,5.01
2019-02-28T06:40:33.175Z,5.01
2019-02-28T06:41:32.670Z,5.11
2019-02-28T06:42:32.556Z,5.09
2019-02-28T06:43:33.684Z,5.05
2019-02-28T06:44:32.547Z,5.01
2019-02-28T06:45:37.579Z,4.94
2019-02-28T06:46:32.452Z,5.04
2019-02-28T06:47:33.531Z,5.06
2019-02-28T06:48:32.413Z,5.06
2019-02-28T06:49:32.446Z,4.96
2019-02-28T06:50:32.335Z,5.02
2019-02-28T06:51:32.328Z,4.99
2019-02-28T06:52:32.279Z,5.11
2019-02-28T06:53:33.955Z,4.91
2019-02-28T06:54:32.220Z,4.97
2019-02-28T06:55:32.198Z,5.12
2019-02-28T06:56:32.162Z,5.02
2019-02-28T06:57:33.051Z,5.06
2019-02-28T06:58:33.315Z,4.94
2019-02-28T06:59:32.079Z,5.14
2019-02-28T07:00:32.045Z,5.04
2019-02-28T07:01:32.054Z,5.20
2019-02-28T07:02:32.241Z,5.14
2019-02-28T07:03:35.181Z,5.15
2019-02-28T07:04:31.925Z,5.20
2019-02-28T07:05:31.978Z,5.27
2019-02-28T07:06:35.698Z,5.24
2019-02-28T07:07:31.890Z,5.26
2019-02-28T07:08:31.815Z,5.22
2019-02-28T07:09:33.601Z,5.20
2019-02-28T07:10:31.759Z,5.33
2019-02-28T07:11:31.817Z,5.30
2019-02-28T07:12:33.143Z,5.26
2019-02-28T07:13:31.723Z,5.35
2019-02-28T07:14:31.687Z,5.35
2019-02-28T07:15:31.619Z,5.37
2019-02-28T07:16:34.595Z,5.38
2019-02-28T07:17:31.550Z,5.38
2019-02-28T07:18:31.559Z,5.44
2019-02-28T07:19:31.495Z,5.47
2019-02-28T07:20:35.092Z,5.41
2019-02-28T07:21:31.443Z,5.42
2019-02-28T07:22:31.478Z,5.55
2019-02-28T07:23:31.381Z,5.63
2019-02-28T07:24:31.392Z,5.58
2019-02-28T07:25:33.090Z,5.62
2019-02-28T07:26:31.409Z,5.58
2019-02-28T07:27:31.274Z,5.60
2019-02-28T07:28:36.201Z,5.60
2019-02-28T07:29:32.133Z,5.69
2019-02-28T07:30:31.181Z,5.77
2019-02-28T07:31:31.259Z,5.69
2019-02-28T07:32:34.010Z,5.75
2019-02-28T07:33:31.153Z,5.70
2019-02-28T07:34:31.067Z,5.77
2019-02-28T07:35:34.221Z,5.81
2019-02-28T07:36:31.006Z,5.83
2019-02-28T07:37:31.077Z,5.80
2019-02-28T07:38:30.945Z,5.77
2019-02-28T07:39:31.003Z,5.88
2019-02-28T07:40:33.217Z,5.88
2019-02-28T07:41:30.901Z,5.88
2019-02-28T07:42:33.706Z,5.99
2019-02-28T07:43:30.914Z,6.01
2019-02-28T07:44:30.832Z,6.06
2019-02-28T07:45:33.100Z,6.08
2019-02-28T07:46:30.732Z,6.03
2019-02-28T07:47:30.736Z,6.10
2019-02-28T07:48:30.664Z,6.16
2019-02-28T07:49:35.562Z,6.16
2019-02-28T07:50:30.597Z,6.28
2019-02-28T07:51:30.658Z,6.21
2019-02-28T07:52:33.406Z,6.19
2019-02-28T07:53:30.602Z,6.16
2019-02-28T07:54:31.320Z,6.24
2019-02-28T07:55:31.095Z,6.27
2019-02-28T07:56:30.486Z,6.30
2019-02-28T07:57:30.409Z,6.30
2019-02-28T07:58:33.459Z,6.38
2019-02-28T07:59:30.373Z,6.40
2019-02-28T08:00:30.390Z,6.42
2019-02-28T08:01:30.285Z,6.46
2019-02-28T08:02:31.371Z,6.51
2019-02-28T08:03:30.227Z,6.40
2019-02-28T08:04:30.316Z,6.53
2019-02-28T08:05:31.026Z,6.50
2019-02-28T08:06:30.229Z,6.54
2019-02-28T08:07:30.141Z,6.63
2019-02-28T08:08:30.138Z,6.63
2019-02-28T08:09:30.080Z,6.61
2019-02-28T08:10:30.156Z,6.65
2019-02-28T08:11:30.010Z,6.64
2019-02-28T08:12:30.790Z,6.61
2019-02-28T08:13:29.942Z,6.73
2019-02-28T08:14:29.963Z,6.73
2019-02-28T08:15:29.879Z,6.83
2019-02-28T08:16:30.704Z,6.93
2019-02-28T08:17:29.869Z,6.99
2019-02-28T08:18:31.627Z,6.91
2019-02-28T08:19:29.865Z,6.96
2019-02-28T08:20:30.632Z,6.96
2019-02-28T08:21:29.709Z,7.07
2019-02-28T08:22:31.296Z,7.09
2019-02-28T08:23:30.236Z,7.15
2019-02-28T08:24:29.727Z,7.08
2019-02-28T08:25:29.601Z,7.14
2019-02-28T08:26:29.613Z,7.15
2019-02-28T08:27:29.538Z,7.26
2019-02-28T08:28:29.637Z,7.30
2019-02-28T08:29:29.472Z,7.30
2019-02-28T08:30:30.618Z,7.32
2019-02-28T08:31:31.986Z,7.45
2019-02-28T08:32:29.392Z,7.37
2019-02-28T08:33:29.381Z,7.42
2019-02-28T08:34:30.507Z,7.55
2019-02-28T08:35:34.054Z,7.57
2019-02-28T08:36:29.335Z,7.66
2019-02-28T08:37:29.301Z,7.74
2019-02-28T08:38:30.115Z,7.84
2019-02-28T08:39:29.316Z,7.88
2019-02-28T08:40:29.190Z,8.04
2019-02-28T08:41:29.244Z,8.03
2019-02-28T08:42:29.130Z,8.06
2019-02-28T08:43:29.139Z,8.10
2019-02-28T08:44:29.064Z,8.24
2019-02-28T08:45:32.648Z,8.36
2019-02-28T08:46:29.015Z,8.37
2019-02-28T08:47:28.958Z,8.32
2019-02-28T08:48:32.458Z,8.31
2019-02-28T08:49:28.932Z,8.31
2019-02-28T08:50:28.953Z,8.43
2019-02-28T08:51:30.845Z,8.57
2019-02-28T08:52:28.813Z,8.42
2019-02-28T08:53:28.783Z,8.49
2019-02-28T08:54:28.783Z,8.43
2019-02-28T08:55:29.447Z,8.50
2019-02-28T08:56:28.697Z,8.49
2019-02-28T08:57:29.722Z,8.57
2019-02-28T08:58:28.650Z,8.58
2019-02-28T08:59:28.751Z,8.57
2019-02-28T09:00:32.807Z,8.54
2019-02-28T09:01:28.617Z,8.55
2019-02-28T09:02:30.337Z,8.57
2019-02-28T09:03:28.543Z,8.71
2019-02-28T09:04:28.473Z,8.73
2019-02-28T09:05:30.073Z,8.79
2019-02-28T09:06:28.414Z,8.70
2019-02-28T09:07:28.382Z,8.88
2019-02-28T09:08:28.382Z,8.88
2019-02-28T09:09:28.322Z,9.00
2019-02-28T09:10:28.303Z,9.01
2019-02-28T09:11:28.389Z,9.12
2019-02-28T09:12:29.905Z,9.12
2019-02-28T09:13:28.301Z,9.16
2019-02-28T09:14:28.187Z,9.19
2019-02-28T09:15:42.811Z,9.34
2019-02-28T09:16:28.133Z,9.22
2019-02-28T09:17:28.175Z,9.27
2019-02-28T09:18:28.133Z,9.31
2019-02-28T09:19:29.115Z,9.26
2019-02-28T09:20:27.998Z,9.26
2019-02-28T09:21:28.001Z,9.34
2019-02-28T09:22:28.153Z,9.41
2019-02-28T09:23:28.078Z,9.53
2019-02-28T09:24:27.919Z,9.58
2019-02-28T09:25:28.028Z,9.60
2019-02-28T09:26:28.211Z,9.58
2019-02-28T09:27:27.811Z,9.60
2019-02-28T09:28:27.772Z,9.58
2019-02-28T09:29:28.795Z,9.53
2019-02-28T09:30:29.755Z,9.77
2019-02-28T09:31:28.803Z,9.74
2019-02-28T09:32:27.673Z,9.71
2019-02-28T09:33:27.775Z,9.85
2019-02-28T09:34:30.624Z,9.83
2019-02-28T09:35:28.783Z,9.91
2019-02-28T09:36:27.550Z,9.99
2019-02-28T09:37:29.816Z,9.98
2019-02-28T09:38:34.373Z,10.09
2019-02-28T09:39:27.463Z,10.17
2019-02-28T09:40:29.496Z,10.24
2019-02-28T09:41:27.411Z,10.43
2019-02-28T09:42:27.436Z,10.49
2019-02-28T09:43:27.355Z,10.70
2019-02-28T09:44:34.434Z,10.75
2019-02-28T09:45:27.347Z,10.84
2019-02-28T09:46:33.848Z,10.91
2019-02-28T09:47:27.509Z,10.95
2019-02-28T09:48:53.034Z,10.98
2019-02-28T09:49:27.221Z,11.12
2019-02-28T09:50:27.169Z,11.20
2019-02-28T09:51:31.649Z,11.33
2019-02-28T09:52:27.127Z,11.30
2019-02-28T09:53:55.010Z,11.41
2019-02-28T09:54:27.059Z,11.48
2019-02-28T09:55:35.249Z,11.46
2019-02-28T09:56:27.008Z,11.39
2019-02-28T09:57:26.968Z,11.48
2019-02-28T09:58:29.357Z,11.42
2019-02-28T09:59:26.907Z,11.53
2019-02-28T10:01:26.831Z,11.51
2019-02-28T10:02:26.971Z,11.59
2019-02-28T10:03:26.786Z,11.56
2019-02-28T10:05:06.653Z,11.49
2019-02-28T10:05:26.745Z,11.49
2019-02-28T10:06:26.697Z,11.53
2019-02-28T10:07:27.934Z,11.66
2019-02-28T10:08:26.675Z,11.62
2019-02-28T10:09:27.630Z,11.63
2019-02-28T10:10:26.575Z,11.66
2019-02-28T10:13:53.286Z,11.69
2019-02-28T10:14:52.088Z,11.69
2019-02-28T10:15:51.577Z,11.75
2019-02-28T10:16:52.680Z,11.85
2019-02-28T10:17:51.521Z,11.85
2019-02-28T10:18:51.509Z,11.82
2019-02-28T10:19:52.258Z,11.66
2019-02-28T10:20:51.434Z,11.70
2019-02-28T10:21:52.044Z,11.75
2019-02-28T10:22:51.377Z,11.77
2019-02-28T10:23:53.410Z,11.72
2019-02-28T10:24:51.446Z,11.53
2019-02-28T10:25:51.287Z,11.67
2019-02-28T10:26:52.421Z,11.81
2019-02-28T10:27:51.230Z,11.98
2019-02-28T10:28:51.205Z,11.97
2019-02-28T10:30:18.718Z,11.98
2019-02-28T10:30:51.165Z,12.03
2019-02-28T10:31:58.753Z,12.15
2019-02-28T10:32:51.092Z,12.29
2019-02-28T10:34:07.792Z,12.33
2019-02-28T10:34:51.036Z,12.30
2019-02-28T10:35:52.081Z,12.19
2019-02-28T10:36:50.984Z,12.16
2019-02-28T10:38:13.035Z,12.21
2019-02-28T10:38:50.917Z,12.31
2019-02-28T10:39:51.957Z,12.25
2019-02-28T10:40:52.397Z,12.31
2019-02-28T10:42:06.717Z,12.40
2019-02-28T10:42:50.820Z,12.48
2019-02-28T10:44:11.845Z,12.38
2019-02-28T10:44:50.747Z,12.51
2019-02-28T10:48:19.742Z,12.22
2019-02-28T10:49:21.085Z,12.22
2019-02-28T10:50:21.106Z,12.13
2019-02-28T10:51:26.464Z,12.22
2019-02-28T10:52:19.618Z,12.15
2019-02-28T10:53:19.691Z,12.04
2019-02-28T10:54:19.551Z,12.01
2019-02-28T10:55:22.407Z,12.03
2019-02-28T10:56:19.482Z,12.05
2019-02-28T10:57:19.463Z,12.07
2019-02-28T10:58:19.446Z,11.98
2019-02-28T10:59:21.329Z,12.01
2019-02-28T11:00:20.197Z,12.15
2019-02-28T11:01:19.441Z,12.18
2019-02-28T11:02:19.959Z,12.19
2019-02-28T11:03:31.707Z,12.16
2019-02-28T11:04:19.259Z,12.23
2019-02-28T11:05:21.309Z,12.25
2019-02-28T11:06:19.201Z,12.29
2019-02-28T11:07:19.171Z,12.40
2019-02-28T11:08:26.977Z,12.52
2019-02-28T11:09:21.733Z,12.61
2019-02-28T11:10:21.152Z,12.66
2019-02-28T11:11:19.092Z,12.71
2019-02-28T11:12:23.724Z,12.71
2019-02-28T11:13:19.000Z,12.85
2019-02-28T11:14:20.052Z,12.69
2019-02-28T11:15:18.948Z,12.62
2019-02-28T11:16:23.691Z,12.76
2019-02-28T11:17:18.891Z,12.79
2019-02-28T11:18:18.963Z,12.89
2019-02-28T11:19:19.571Z,12.98
2019-02-28T11:20:22.211Z,13.06
2019-02-28T11:21:18.778Z,13.09
2019-02-28T11:22:19.803Z,13.17
2019-02-28T11:23:18.731Z,13.24
2019-02-28T11:24:23.670Z,13.35
2019-02-28T11:25:18.662Z,13.38
2019-02-28T11:26:18.642Z,13.41
2019-02-28T11:27:19.713Z,13.59
2019-02-28T11:28:18.585Z,13.63
2019-02-28T11:29:19.650Z,13.66
2019-02-28T11:30:18.528Z,13.63
2019-02-28T11:31:20.098Z,13.69
2019-02-28T11:32:18.482Z,13.59
2019-02-28T11:33:19.472Z,13.66
2019-02-28T11:34:18.836Z,13.50
2019-02-28T11:35:20.138Z,13.41
2019-02-28T11:36:18.456Z,13.38
2019-02-28T11:37:18.393Z,13.28
2019-02-28T11:38:21.462Z,13.36
2019-02-28T11:39:18.307Z,13.35
2019-02-28T11:40:18.246Z,13.36
2019-02-28T11:41:18.700Z,13.35
2019-02-28T11:42:18.212Z,13.36
2019-02-28T11:43:18.165Z,13.19
2019-02-28T11:44:18.145Z,13.10
2019-02-28T11:45:18.507Z,13.06
2019-02-28T11:46:18.074Z,13.09
2019-02-28T11:47:18.054Z,13.04
2019-02-28T11:48:20.140Z,13.09
2019-02-28T11:49:17.996Z,13.10
2019-02-28T11:50:17.966Z,13.10
2019-02-28T11:51:18.510Z,13.07
2019-02-28T11:52:17.911Z,13.10
2019-02-28T11:53:19.130Z,13.01
2019-02-28T11:54:17.902Z,13.03
2019-02-28T11:55:20.362Z,12.96
2019-02-28T11:56:17.807Z,13.04
2019-02-28T11:57:17.876Z,13.09
2019-02-28T11:58:18.133Z,13.14
2019-02-28T11:59:17.717Z,13.19
2019-02-28T12:00:17.701Z,13.19
2019-02-28T12:01:17.667Z,13.17
2019-02-28T12:02:20.278Z,13.13
2019-02-28T12:03:17.607Z,13.07
2019-02-28T12:04:17.586Z,13.09
2019-02-28T12:05:17.553Z,13.09
2019-02-28T12:06:17.531Z,13.10
2019-02-28T12:07:17.498Z,13.25
2019-02-28T12:08:17.470Z,13.19
2019-02-28T12:09:19.266Z,13.31
2019-02-28T12:10:17.411Z,13.35
2019-02-28T12:11:17.387Z,13.43
2019-02-28T12:12:17.365Z,13.47
2019-02-28T12:13:19.713Z,13.35
2019-02-28T12:14:17.301Z,13.39
2019-02-28T12:15:17.270Z,13.47
2019-02-28T12:16:19.252Z,13.53
2019-02-28T12:17:17.223Z,13.53
2019-02-28T12:18:17.190Z,13.59
2019-02-28T12:19:17.162Z,13.50
2019-02-28T12:20:17.134Z,13.50
2019-02-28T12:21:17.118Z,13.47
2019-02-28T12:22:17.079Z,13.47
2019-02-28T12:23:17.163Z,13.54
2019-02-28T12:24:17.033Z,13.51
2019-02-28T12:25:17.078Z,13.54
2019-02-28T12:26:17.752Z,13.51
2019-02-28T12:27:16.940Z,13.63
2019-02-28T12:28:16.906Z,13.66
2019-02-28T12:29:18.238Z,13.72
2019-02-28T12:30:18.740Z,13.84
2019-02-28T12:31:16.830Z,13.88
2019-02-28T12:32:16.917Z,13.94
2019-02-28T12:33:18.699Z,13.99
2019-02-28T12:34:16.830Z,13.99
2019-02-28T12:35:16.717Z,14.01
2019-02-28T12:36:16.739Z,13.93
2019-02-28T12:37:16.656Z,13.87
2019-02-28T12:38:16.654Z,13.83
2019-02-28T12:39:16.599Z,13.80
2019-02-28T12:40:16.663Z,13.80
2019-02-28T12:41:16.544Z,13.79
2019-02-28T12:42:16.586Z,13.83
2019-02-28T12:43:16.493Z,13.79
2019-02-28T12:44:16.491Z,13.76
2019-02-28T12:45:16.436Z,13.75
2019-02-28T12:46:16.403Z,13.79
2019-02-28T12:47:16.437Z,13.76
2019-02-28T12:48:16.348Z,13.86
2019-02-28T12:49:21.751Z,13.87
2019-02-28T12:50:16.296Z,13.80
2019-02-28T12:51:16.266Z,13.88
2019-02-28T12:52:16.239Z,14.05
2019-02-28T12:53:16.208Z,13.99
2019-02-28T12:54:16.182Z,14.04
2019-02-28T12:55:16.166Z,14.12
2019-02-28T12:56:16.126Z,14.30
2019-02-28T12:57:16.105Z,14.31
2019-02-28T12:58:16.071Z,14.42
2019-02-28T12:59:16.042Z,14.46
2019-02-28T13:00:16.018Z,14.57
2019-02-28T13:01:16.002Z,14.69
2019-02-28T13:02:15.966Z,14.80
2019-02-28T13:03:19.230Z,14.86
2019-02-28T13:04:15.910Z,14.78
2019-02-28T13:05:16.006Z,14.86
2019-02-28T13:06:15.891Z,14.79
2019-02-28T13:07:15.938Z,14.79
2019-02-28T13:08:15.840Z,14.85
2019-02-28T13:09:16.899Z,14.95
2019-02-28T13:10:15.754Z,14.93
2019-02-28T13:11:15.800Z,14.87
2019-02-28T13:12:15.744Z,14.91
2019-02-28T13:13:15.659Z,15.00
2019-02-28T13:14:15.667Z,14.94
2019-02-28T13:15:15.611Z,14.86
2019-02-28T13:16:17.396Z,14.90
2019-02-28T13:17:16.131Z,15.04
2019-02-28T13:18:15.541Z,14.91
2019-02-28T13:19:16.438Z,14.83
2019-02-28T13:20:15.497Z,14.91
2019-02-28T13:21:15.454Z,14.98
2019-02-28T13:22:18.879Z,14.98
2019-02-28T13:23:17.162Z,15.03
2019-02-28T13:24:15.388Z,15.15
2019-02-28T13:25:15.346Z,15.11
2019-02-28T13:26:15.298Z,15.16
2019-02-28T13:27:15.293Z,15.13
2019-02-28T13:28:17.993Z,15.09